sensor_id;sensor_type;location;lat;lon;timestamp;pressure;altitude;pressure_sealevel;temperature;humidity
9462;BME280;4769;42.660;23.262;2023-02-03T00:01:19;94217.56;;;2.60;89.00
9462;BME280;4769;42.660;23.262;2023-02-03T00:03:47;94205.19;;;2.68;89.49
9462;BME280;4769;42.660;23.262;2023-02-03T00:06:14;94199.47;;;2.52;90.32
9462;BME280;4769;42.660;23.262;2023-02-03T00:08:40;94209.34;;;2.35;92.42
9462;BME280;4769;42.660;23.262;2023-02-03T00:11:07;94202.38;;;2.36;93.58
9462;BME280;4769;42.660;23.262;2023-02-03T00:13:34;94214.53;;;2.08;95.05
9462;BME280;4769;42.660;23.262;2023-02-03T00:16:01;94213.13;;;2.12;97.21
9462;BME280;4769;42.660;23.262;2023-02-03T00:18:32;94210.06;;;2.23;96.95
9462;BME280;4769;42.660;23.262;2023-02-03T00:20:58;94201.06;;;2.04;97.14
9462;BME280;4769;42.660;23.262;2023-02-03T00:23:25;94215.25;;;2.23;97.17
9462;BME280;4769;42.660;23.262;2023-02-03T00:25:54;94208.44;;;2.22;97.12
9462;BME280;4769;42.660;23.262;2023-02-03T00:28:21;94214.88;;;2.26;97.55
9462;BME280;4769;42.660;23.262;2023-02-03T00:30:47;94218.41;;;2.39;97.42
9462;BME280;4769;42.660;23.262;2023-02-03T00:33:14;94205.00;;;2.42;96.28
9462;BME280;4769;42.660;23.262;2023-02-03T00:35:42;94217.81;;;2.44;96.85
9462;BME280;4769;42.660;23.262;2023-02-03T00:38:09;94213.44;;;2.23;96.58
9462;BME280;4769;42.660;23.262;2023-02-03T00:40:36;94216.34;;;2.35;95.95
9462;BME280;4769;42.660;23.262;2023-02-03T00:43:02;94223.91;;;2.30;95.93
9462;BME280;4769;42.660;23.262;2023-02-03T00:45:29;94238.28;;;2.26;95.41
9462;BME280;4769;42.660;23.262;2023-02-03T00:47:56;94213.13;;;2.12;94.43
9462;BME280;4769;42.660;23.262;2023-02-03T00:50:23;94221.31;;;2.30;94.05
9462;BME280;4769;42.660;23.262;2023-02-03T00:52:51;94226.31;;;2.31;93.12
9462;BME280;4769;42.660;23.262;2023-02-03T00:55:18;94217.91;;;2.29;92.42
9462;BME280;4769;42.660;23.262;2023-02-03T00:57:44;94228.84;;;2.46;91.75
9462;BME280;4769;42.660;23.262;2023-02-03T01:00:12;94222.44;;;2.21;91.30
9462;BME280;4769;42.660;23.262;2023-02-03T01:02:38;94216.63;;;2.19;92.15
9462;BME280;4769;42.660;23.262;2023-02-03T01:05:06;94238.78;;;2.36;91.59
9462;BME280;4769;42.660;23.262;2023-02-03T01:07:33;94250.16;;;2.35;91.75
9462;BME280;4769;42.660;23.262;2023-02-03T01:10:01;94250.84;;;2.22;92.38
9462;BME280;4769;42.660;23.262;2023-02-03T01:12:29;94256.75;;;2.10;93.20
9462;BME280;4769;42.660;23.262;2023-02-03T01:14:55;94262.81;;;2.17;92.86
9462;BME280;4769;42.660;23.262;2023-02-03T01:17:22;94257.06;;;2.21;92.86
9462;BME280;4769;42.660;23.262;2023-02-03T01:19:50;94249.84;;;2.23;93.57
9462;BME280;4769;42.660;23.262;2023-02-03T01:22:17;94251.34;;;2.32;92.53
9462;BME280;4769;42.660;23.262;2023-02-03T01:24:44;94237.72;;;2.09;92.63
9462;BME280;4769;42.660;23.262;2023-02-03T01:27:12;94258.50;;;2.03;93.39
9462;BME280;4769;42.660;23.262;2023-02-03T01:29:39;94240.41;;;1.95;94.35
9462;BME280;4769;42.660;23.262;2023-02-03T01:32:06;94260.09;;;2.04;94.17
9462;BME280;4769;42.660;23.262;2023-02-03T01:34:32;94247.56;;;1.93;94.38
9462;BME280;4769;42.660;23.262;2023-02-03T01:36:59;94259.13;;;1.90;94.78
9462;BME280;4769;42.660;23.262;2023-02-03T01:39:26;94253.50;;;1.87;94.37
9462;BME280;4769;42.660;23.262;2023-02-03T01:41:54;94259.88;;;1.84;95.11
9462;BME280;4769;42.660;23.262;2023-02-03T01:44:49;94252.13;;;1.70;94.86
9462;BME280;4769;42.660;23.262;2023-02-03T01:47:28;94259.28;;;1.82;95.60
9462;BME280;4769;42.660;23.262;2023-02-03T01:50:00;94261.13;;;1.88;94.71
9462;BME280;4769;42.660;23.262;2023-02-03T01:52:29;94255.19;;;1.94;93.96
9462;BME280;4769;42.660;23.262;2023-02-03T01:54:57;94265.22;;;1.97;95.23
9462;BME280;4769;42.660;23.262;2023-02-03T01:57:29;94261.81;;;1.97;94.43
9462;BME280;4769;42.660;23.262;2023-02-03T01:59:59;94259.88;;;1.84;94.09
9462;BME280;4769;42.660;23.262;2023-02-03T02:02:26;94269.06;;;2.01;93.37
9462;BME280;4769;42.660;23.262;2023-02-03T02:04:56;94271.41;;;1.96;93.31
9462;BME280;4769;42.660;23.262;2023-02-03T02:07:25;94260.56;;;1.93;93.34
9462;BME280;4769;42.660;23.262;2023-02-03T02:09:53;94256.72;;;1.89;92.97
9462;BME280;4769;42.660;23.262;2023-02-03T02:12:21;94277.78;;;1.94;92.67
9462;BME280;4769;42.660;23.262;2023-02-03T02:14:47;94273.19;;;1.96;93.50
9462;BME280;4769;42.660;23.262;2023-02-03T02:17:27;94280.56;;;1.92;92.89
9462;BME280;4769;42.660;23.262;2023-02-03T02:20:30;94285.47;;;2.02;92.34
9462;BME280;4769;42.660;23.262;2023-02-03T02:23:16;94289.88;;;2.01;92.51
9462;BME280;4769;42.660;23.262;2023-02-03T02:26:02;94293.00;;;1.97;91.93
9462;BME280;4769;42.660;23.262;2023-02-03T02:28:52;94292.41;;;1.95;92.02
9462;BME280;4769;42.660;23.262;2023-02-03T02:31:51;94305.28;;;2.03;92.28
9462;BME280;4769;42.660;23.262;2023-02-03T02:34:29;94308.25;;;2.00;91.20
9462;BME280;4769;42.660;23.262;2023-02-03T02:37:03;94304.06;;;1.84;91.29
9462;BME280;4769;42.660;23.262;2023-02-03T02:39:38;94311.69;;;1.86;91.81
9462;BME280;4769;42.660;23.262;2023-02-03T02:42:14;94285.88;;;1.84;91.03
9462;BME280;4769;42.660;23.262;2023-02-03T02:44:46;94318.50;;;1.87;91.94
9462;BME280;4769;42.660;23.262;2023-02-03T02:47:18;94311.63;;;1.79;91.76
9462;BME280;4769;42.660;23.262;2023-02-03T02:49:50;94301.19;;;1.94;91.60
9462;BME280;4769;42.660;23.262;2023-02-03T02:52:21;94294.56;;;1.91;91.15
9462;BME280;4769;42.660;23.262;2023-02-03T02:54:52;94281.94;;;1.88;90.09
9462;BME280;4769;42.660;23.262;2023-02-03T02:57:23;94297.78;;;1.93;89.39
9462;BME280;4769;42.660;23.262;2023-02-03T02:59:52;94293.25;;;2.02;89.10
9462;BME280;4769;42.660;23.262;2023-02-03T03:02:21;94299.09;;;2.04;88.37
9462;BME280;4769;42.660;23.262;2023-02-03T03:04:48;94352.97;;;2.10;88.00
9462;BME280;4769;42.660;23.262;2023-02-03T03:07:19;94327.13;;;1.87;88.63
9462;BME280;4769;42.660;23.262;2023-02-03T03:09:50;94324.94;;;1.91;88.72
9462;BME280;4769;42.660;23.262;2023-02-03T03:12:20;94315.31;;;1.70;88.72
9462;BME280;4769;42.660;23.262;2023-02-03T03:14:51;94322.75;;;1.73;87.39
9462;BME280;4769;42.660;23.262;2023-02-03T03:17:23;94312.47;;;1.86;86.92
9462;BME280;4769;42.660;23.262;2023-02-03T03:19:54;94342.81;;;1.79;86.57
9462;BME280;4769;42.660;23.262;2023-02-03T03:22:25;94329.47;;;1.82;86.28
9462;BME280;4769;42.660;23.262;2023-02-03T03:24:59;94327.03;;;1.81;86.15
9462;BME280;4769;42.660;23.262;2023-02-03T03:27:32;94331.41;;;1.80;86.17
9462;BME280;4769;42.660;23.262;2023-02-03T03:30:02;94355.31;;;1.90;86.42
9462;BME280;4769;42.660;23.262;2023-02-03T03:32:32;94337.44;;;1.81;86.44
9462;BME280;4769;42.660;23.262;2023-02-03T03:35:00;94344.25;;;1.82;86.19
9462;BME280;4769;42.660;23.262;2023-02-03T03:37:34;94342.88;;;1.86;85.79
9462;BME280;4769;42.660;23.262;2023-02-03T03:40:08;94330.97;;;1.77;86.36
9462;BME280;4769;42.660;23.262;2023-02-03T03:42:39;94332.50;;;1.71;86.36
9462;BME280;4769;42.660;23.262;2023-02-03T03:45:13;94318.25;;;1.82;85.69
9462;BME280;4769;42.660;23.262;2023-02-03T03:47:48;94333.63;;;1.98;85.26
9462;BME280;4769;42.660;23.262;2023-02-03T03:50:18;94337.09;;;2.05;84.87
9462;BME280;4769;42.660;23.262;2023-02-03T03:52:48;94342.16;;;1.92;85.34
9462;BME280;4769;42.660;23.262;2023-02-03T03:55:18;94317.34;;;1.75;85.99
9462;BME280;4769;42.660;23.262;2023-02-03T03:57:50;94323.19;;;1.77;86.88
9462;BME280;4769;42.660;23.262;2023-02-03T04:00:21;94339.69;;;1.69;87.37
9462;BME280;4769;42.660;23.262;2023-02-03T04:02:51;94318.81;;;1.77;87.25
9462;BME280;4769;42.660;23.262;2023-02-03T04:05:20;94338.78;;;1.77;87.77
9462;BME280;4769;42.660;23.262;2023-02-03T04:07:47;94329.38;;;1.76;86.88
9462;BME280;4769;42.660;23.262;2023-02-03T04:10:20;94325.25;;;1.67;87.62
9462;BME280;4769;42.660;23.262;2023-02-03T04:12:49;94320.41;;;1.64;87.87
9462;BME280;4769;42.660;23.262;2023-02-03T04:15:16;94343.47;;;1.67;87.16
9462;BME280;4769;42.660;23.262;2023-02-03T04:17:42;94336.72;;;1.72;87.61
9462;BME280;4769;42.660;23.262;2023-02-03T04:20:12;94332.41;;;1.79;86.59
9462;BME280;4769;42.660;23.262;2023-02-03T04:22:38;94336.00;;;1.78;86.81
9462;BME280;4769;42.660;23.262;2023-02-03T04:25:05;94386.81;;;1.66;87.47
9462;BME280;4769;42.660;23.262;2023-02-03T04:27:33;94355.09;;;1.71;87.86
9462;BME280;4769;42.660;23.262;2023-02-03T04:30:00;94342.13;;;1.56;87.71
9462;BME280;4769;42.660;23.262;2023-02-03T04:32:27;94341.69;;;1.53;88.42
9462;BME280;4769;42.660;23.262;2023-02-03T04:34:55;94370.94;;;1.47;88.31
9462;BME280;4769;42.660;23.262;2023-02-03T04:37:24;94358.25;;;1.52;88.05
9462;BME280;4769;42.660;23.262;2023-02-03T04:39:52;94367.19;;;1.64;88.20
9462;BME280;4769;42.660;23.262;2023-02-03T04:42:20;94351.50;;;1.57;88.11
9462;BME280;4769;42.660;23.262;2023-02-03T04:44:47;94368.63;;;1.66;87.64
9462;BME280;4769;42.660;23.262;2023-02-03T04:47:14;94379.22;;;1.50;88.42
9462;BME280;4769;42.660;23.262;2023-02-03T04:49:41;94375.97;;;1.63;88.42
9462;BME280;4769;42.660;23.262;2023-02-03T04:52:08;94376.63;;;1.50;88.41
9462;BME280;4769;42.660;23.262;2023-02-03T04:54:36;94389.31;;;1.60;87.96
9462;BME280;4769;42.660;23.262;2023-02-03T04:57:03;94382.53;;;1.59;88.22
9462;BME280;4769;42.660;23.262;2023-02-03T04:59:30;94394.44;;;1.53;88.10
9462;BME280;4769;42.660;23.262;2023-02-03T05:01:57;94389.84;;;1.70;87.99
9462;BME280;4769;42.660;23.262;2023-02-03T05:04:24;94385.03;;;1.67;86.47
9462;BME280;4769;42.660;23.262;2023-02-03T05:06:50;94397.03;;;1.68;87.13
9462;BME280;4769;42.660;23.262;2023-02-03T05:09:17;94390.41;;;1.65;86.94
9462;BME280;4769;42.660;23.262;2023-02-03T05:11:45;94399.81;;;1.66;87.13
9462;BME280;4769;42.660;23.262;2023-02-03T05:14:12;94404.22;;;1.66;86.76
9462;BME280;4769;42.660;23.262;2023-02-03T05:16:39;94405.09;;;1.73;87.02
9462;BME280;4769;42.660;23.262;2023-02-03T05:19:06;94395.31;;;1.75;86.76
9462;BME280;4769;42.660;23.262;2023-02-03T05:21:33;94402.78;;;1.78;86.67
9462;BME280;4769;42.660;23.262;2023-02-03T05:23:59;94411.72;;;1.75;86.96
9462;BME280;4769;42.660;23.262;2023-02-03T05:26:28;94421.41;;;1.81;87.57
9462;BME280;4769;42.660;23.262;2023-02-03T05:28:56;94426.06;;;1.71;88.16
9462;BME280;4769;42.660;23.262;2023-02-03T05:31:23;94439.88;;;1.72;88.26
9462;BME280;4769;42.660;23.262;2023-02-03T05:33:49;94431.16;;;1.65;87.98
9462;BME280;4769;42.660;23.262;2023-02-03T05:36:16;94447.66;;;1.57;88.04
9462;BME280;4769;42.660;23.262;2023-02-03T05:38:43;94427.25;;;1.54;88.33
9462;BME280;4769;42.660;23.262;2023-02-03T05:41:11;94438.59;;;1.53;88.40
9462;BME280;4769;42.660;23.262;2023-02-03T05:43:56;94440.03;;;1.56;88.59
9462;BME280;4769;42.660;23.262;2023-02-03T05:46:23;94436.09;;;1.60;88.20
9462;BME280;4769;42.660;23.262;2023-02-03T05:48:50;94426.25;;;1.55;88.72
9462;BME280;4769;42.660;23.262;2023-02-03T05:51:17;94456.16;;;1.51;88.27
9462;BME280;4769;42.660;23.262;2023-02-03T05:53:44;94435.63;;;1.42;88.52
9462;BME280;4769;42.660;23.262;2023-02-03T05:56:11;94440.13;;;1.48;88.63
9462;BME280;4769;42.660;23.262;2023-02-03T05:58:39;94453.69;;;1.58;88.07
9462;BME280;4769;42.660;23.262;2023-02-03T06:01:08;94462.34;;;1.50;87.75
9462;BME280;4769;42.660;23.262;2023-02-03T06:03:36;94442.97;;;1.38;88.16
9462;BME280;4769;42.660;23.262;2023-02-03T06:06:02;94447.81;;;1.56;88.00
9462;BME280;4769;42.660;23.262;2023-02-03T06:08:29;94456.78;;;1.53;87.72
9462;BME280;4769;42.660;23.262;2023-02-03T06:10:57;94467.94;;;1.62;87.18
9462;BME280;4769;42.660;23.262;2023-02-03T06:13:25;94457.25;;;1.57;86.72
9462;BME280;4769;42.660;23.262;2023-02-03T06:15:52;94459.34;;;1.76;86.20
9462;BME280;4769;42.660;23.262;2023-02-03T06:18:20;94476.28;;;1.72;86.52
9462;BME280;4769;42.660;23.262;2023-02-03T06:20:47;94472.69;;;1.73;85.61
9462;BME280;4769;42.660;23.262;2023-02-03T06:23:14;94473.03;;;1.70;85.65
9462;BME280;4769;42.660;23.262;2023-02-03T06:25:43;94473.78;;;1.78;85.11
9462;BME280;4769;42.660;23.262;2023-02-03T06:28:10;94516.41;;;1.84;84.17
9462;BME280;4769;42.660;23.262;2023-02-03T06:30:37;94475.78;;;1.54;84.30
9462;BME280;4769;42.660;23.262;2023-02-03T06:33:03;94477.53;;;1.76;83.37
9462;BME280;4769;42.660;23.262;2023-02-03T06:35:32;94468.66;;;1.85;83.15
9462;BME280;4769;42.660;23.262;2023-02-03T06:37:58;94508.47;;;2.14;81.90
9462;BME280;4769;42.660;23.262;2023-02-03T06:40:25;94499.59;;;2.09;81.82
9462;BME280;4769;42.660;23.262;2023-02-03T06:42:52;94493.66;;;2.15;81.18
9462;BME280;4769;42.660;23.262;2023-02-03T06:45:18;94488.28;;;2.16;80.37
9462;BME280;4769;42.660;23.262;2023-02-03T06:47:45;94502.13;;;2.17;80.58
9462;BME280;4769;42.660;23.262;2023-02-03T06:50:14;94507.94;;;2.33;80.97
9462;BME280;4769;42.660;23.262;2023-02-03T06:52:42;94511.84;;;2.44;79.77
9462;BME280;4769;42.660;23.262;2023-02-03T06:55:10;94512.22;;;2.41;79.07
9462;BME280;4769;42.660;23.262;2023-02-03T06:57:42;94518.31;;;2.48;79.05
9462;BME280;4769;42.660;23.262;2023-02-03T07:00:11;94492.03;;;2.43;79.58
9462;BME280;4769;42.660;23.262;2023-02-03T07:02:38;94516.63;;;2.55;79.10
9462;BME280;4769;42.660;23.262;2023-02-03T07:05:05;94513.63;;;2.58;78.93
9462;BME280;4769;42.660;23.262;2023-02-03T07:07:32;94505.72;;;2.51;77.62
9462;BME280;4769;42.660;23.262;2023-02-03T07:10:01;94509.41;;;2.57;78.12
9462;BME280;4769;42.660;23.262;2023-02-03T07:12:27;94509.84;;;2.75;77.26
9462;BME280;4769;42.660;23.262;2023-02-03T07:14:54;94532.38;;;2.68;77.54
9462;BME280;4769;42.660;23.262;2023-02-03T07:17:21;94501.94;;;2.68;77.12
9462;BME280;4769;42.660;23.262;2023-02-03T07:19:48;94508.59;;;2.71;76.07
9462;BME280;4769;42.660;23.262;2023-02-03T07:22:15;94518.38;;;2.69;76.10
9462;BME280;4769;42.660;23.262;2023-02-03T07:24:41;94520.03;;;2.41;76.30
9462;BME280;4769;42.660;23.262;2023-02-03T07:27:09;94522.59;;;2.55;76.00
9462;BME280;4769;42.660;23.262;2023-02-03T07:29:39;94501.25;;;2.60;75.65
9462;BME280;4769;42.660;23.262;2023-02-03T07:32:05;94525.38;;;2.54;76.17
9462;BME280;4769;42.660;23.262;2023-02-03T07:34:32;94529.75;;;2.68;76.07
9462;BME280;4769;42.660;23.262;2023-02-03T07:36:59;94525.38;;;2.54;75.85
9462;BME280;4769;42.660;23.262;2023-02-03T07:39:25;94518.56;;;2.53;75.56
9462;BME280;4769;42.660;23.262;2023-02-03T07:41:52;94526.72;;;2.79;75.46
9462;BME280;4769;42.660;23.262;2023-02-03T07:44:20;94517.56;;;2.68;75.94
9462;BME280;4769;42.660;23.262;2023-02-03T07:46:47;94526.03;;;2.91;74.63
9462;BME280;4769;42.660;23.262;2023-02-03T07:49:14;94533.25;;;3.10;74.31
9462;BME280;4769;42.660;23.262;2023-02-03T07:51:42;94539.38;;;3.03;74.63
9462;BME280;4769;42.660;23.262;2023-02-03T07:54:09;94517.78;;;2.88;73.99
9462;BME280;4769;42.660;23.262;2023-02-03T07:56:36;94535.50;;;3.13;74.38
9462;BME280;4769;42.660;23.262;2023-02-03T07:59:02;94542.34;;;3.00;74.16
9462;BME280;4769;42.660;23.262;2023-02-03T08:01:31;94555.59;;;2.98;74.29
9462;BME280;4769;42.660;23.262;2023-02-03T08:03:58;94540.25;;;3.10;74.07
9462;BME280;4769;42.660;23.262;2023-02-03T08:06:26;94539.41;;;3.45;73.51
9462;BME280;4769;42.660;23.262;2023-02-03T08:08:54;94547.16;;;3.38;71.53
9462;BME280;4769;42.660;23.262;2023-02-03T08:11:21;94542.22;;;3.22;72.40
9462;BME280;4769;42.660;23.262;2023-02-03T08:13:48;94527.81;;;3.26;72.33
9462;BME280;4769;42.660;23.262;2023-02-03T08:16:15;94604.09;;;3.20;72.38
9462;BME280;4769;42.660;23.262;2023-02-03T08:18:43;94529.81;;;2.89;73.27
9462;BME280;4769;42.660;23.262;2023-02-03T08:21:10;94528.50;;;2.78;74.48
9462;BME280;4769;42.660;23.262;2023-02-03T08:23:37;94538.19;;;2.84;73.44
9462;BME280;4769;42.660;23.262;2023-02-03T08:26:04;94545.78;;;3.00;73.39
9462;BME280;4769;42.660;23.262;2023-02-03T08:28:30;94547.72;;;3.13;72.56
9462;BME280;4769;42.660;23.262;2023-02-03T08:30:57;94544.00;;;3.01;72.83
9462;BME280;4769;42.660;23.262;2023-02-03T08:33:24;94556.66;;;3.25;71.67
9462;BME280;4769;42.660;23.262;2023-02-03T08:35:53;94540.97;;;3.18;70.48
9462;BME280;4769;42.660;23.262;2023-02-03T08:38:21;94549.97;;;3.58;70.72
9462;BME280;4769;42.660;23.262;2023-02-03T08:40:50;94549.75;;;3.80;68.79
9462;BME280;4769;42.660;23.262;2023-02-03T08:43:17;94557.50;;;3.74;68.37
9462;BME280;4769;42.660;23.262;2023-02-03T08:45:44;94571.66;;;3.23;70.47
9462;BME280;4769;42.660;23.262;2023-02-03T08:48:11;94574.19;;;3.16;72.36
9462;BME280;4769;42.660;23.262;2023-02-03T08:50:40;94568.22;;;3.01;72.96
9462;BME280;4769;42.660;23.262;2023-02-03T08:53:10;94582.50;;;2.91;73.88
9462;BME280;4769;42.660;23.262;2023-02-03T08:55:38;94580.97;;;2.96;74.23
9462;BME280;4769;42.660;23.262;2023-02-03T08:58:04;94590.75;;;3.09;73.87
9462;BME280;4769;42.660;23.262;2023-02-03T09:00:31;94604.16;;;3.06;75.00
9462;BME280;4769;42.660;23.262;2023-02-03T09:02:58;94597.69;;;3.02;75.00
9462;BME280;4769;42.660;23.262;2023-02-03T09:05:25;94602.50;;;3.05;75.50
9462;BME280;4769;42.660;23.262;2023-02-03T09:07:51;94583.09;;;3.22;75.30
9462;BME280;4769;42.660;23.262;2023-02-03T09:10:19;94588.25;;;3.57;74.47
9462;BME280;4769;42.660;23.262;2023-02-03T09:12:46;94594.66;;;3.55;75.60
9462;BME280;4769;42.660;23.262;2023-02-03T09:15:13;94584.53;;;3.66;74.79
9462;BME280;4769;42.660;23.262;2023-02-03T09:17:40;94589.69;;;3.60;74.40
9462;BME280;4769;42.660;23.262;2023-02-03T09:20:08;94581.63;;;3.76;73.75
9462;BME280;4769;42.660;23.262;2023-02-03T09:22:37;94585.16;;;3.68;72.33
9462;BME280;4769;42.660;23.262;2023-02-03T09:25:05;94582.91;;;3.65;71.85
9462;BME280;4769;42.660;23.262;2023-02-03T09:27:33;94578.13;;;3.90;72.20
9462;BME280;4769;42.660;23.262;2023-02-03T09:30:00;94557.97;;;4.05;71.54
9462;BME280;4769;42.660;23.262;2023-02-03T09:32:27;94573.50;;;4.13;71.08
9462;BME280;4769;42.660;23.262;2023-02-03T09:34:54;94574.50;;;4.18;70.95
9462;BME280;4769;42.660;23.262;2023-02-03T09:37:21;94577.88;;;4.12;70.31
9462;BME280;4769;42.660;23.262;2023-02-03T09:39:47;94572.13;;;3.68;70.57
9462;BME280;4769;42.660;23.262;2023-02-03T09:42:38;94574.53;;;3.49;71.69
9462;BME280;4769;42.660;23.262;2023-02-03T09:45:13;94577.66;;;3.80;71.95
9462;BME280;4769;42.660;23.262;2023-02-03T09:47:43;94592.78;;;3.70;71.06
9462;BME280;4769;42.660;23.262;2023-02-03T09:50:13;94566.06;;;3.89;71.33
9462;BME280;4769;42.660;23.262;2023-02-03T09:52:44;94566.63;;;4.12;70.28
9462;BME280;4769;42.660;23.262;2023-02-03T09:55:23;94569.06;;;4.13;71.06
9462;BME280;4769;42.660;23.262;2023-02-03T09:57:57;94571.13;;;4.18;71.05
9462;BME280;4769;42.660;23.262;2023-02-03T10:00:29;94553.13;;;4.02;68.83
9462;BME280;4769;42.660;23.262;2023-02-03T10:03:01;94557.47;;;4.22;68.54
9462;BME280;4769;42.660;23.262;2023-02-03T10:05:41;94566.84;;;4.10;67.83
9462;BME280;4769;42.660;23.262;2023-02-03T10:08:14;94551.50;;;4.01;68.18
9462;BME280;4769;42.660;23.262;2023-02-03T10:10:48;94541.91;;;3.80;68.04
9462;BME280;4769;42.660;23.262;2023-02-03T10:13:40;94551.50;;;4.01;69.21
9462;BME280;4769;42.660;23.262;2023-02-03T10:16:20;94531.59;;;3.93;67.84
9462;BME280;4769;42.660;23.262;2023-02-03T10:18:53;94540.59;;;3.91;69.08
9462;BME280;4769;42.660;23.262;2023-02-03T10:21:33;94544.63;;;3.66;69.86
9462;BME280;4769;42.660;23.262;2023-02-03T10:24:03;94544.34;;;3.61;70.92
9462;BME280;4769;42.660;23.262;2023-02-03T10:26:32;94543.94;;;3.57;71.46
9462;BME280;4769;42.660;23.262;2023-02-03T10:29:05;94543.38;;;3.62;70.78
9462;BME280;4769;42.660;23.262;2023-02-03T10:31:35;94530.53;;;3.88;69.89
9462;BME280;4769;42.660;23.262;2023-02-03T10:34:09;94523.22;;;4.04;68.03
9462;BME280;4769;42.660;23.262;2023-02-03T10:36:51;94527.81;;;4.30;65.61
9462;BME280;4769;42.660;23.262;2023-02-03T10:39:30;94515.75;;;4.29;64.67
9462;BME280;4769;42.660;23.262;2023-02-03T10:41:57;94511.06;;;4.52;64.18
9462;BME280;4769;42.660;23.262;2023-02-03T10:44:32;94495.53;;;4.37;63.36
9462;BME280;4769;42.660;23.262;2023-02-03T10:47:14;94500.28;;;4.27;62.63
9462;BME280;4769;42.660;23.262;2023-02-03T10:49:44;94501.31;;;4.26;63.97
9462;BME280;4769;42.660;23.262;2023-02-03T10:52:24;94531.19;;;4.24;63.94
9462;BME280;4769;42.660;23.262;2023-02-03T10:54:52;94525.19;;;3.96;60.91
9462;BME280;4769;42.660;23.262;2023-02-03T10:57:19;94533.31;;;3.80;59.86
9462;BME280;4769;42.660;23.262;2023-02-03T10:59:47;94537.84;;;3.71;59.08
9462;BME280;4769;42.660;23.262;2023-02-03T11:02:23;94526.00;;;3.96;56.50
9462;BME280;4769;42.660;23.262;2023-02-03T11:05:08;94521.44;;;4.05;55.58
9462;BME280;4769;42.660;23.262;2023-02-03T11:07:35;94507.31;;;3.93;55.74
9462;BME280;4769;42.660;23.262;2023-02-03T11:10:02;94521.34;;;4.19;55.62
9462;BME280;4769;42.660;23.262;2023-02-03T11:12:29;94504.25;;;4.17;56.21
9462;BME280;4769;42.660;23.262;2023-02-03T11:15:04;94514.94;;;4.22;57.66
9462;BME280;4769;42.660;23.262;2023-02-03T11:17:34;94494.03;;;4.15;57.63
9462;BME280;4769;42.660;23.262;2023-02-03T11:20:04;94506.84;;;4.10;60.91
9462;BME280;4769;42.660;23.262;2023-02-03T11:22:39;94496.97;;;4.06;62.03
9462;BME280;4769;42.660;23.262;2023-02-03T11:25:16;94493.63;;;4.18;61.95
9462;BME280;4769;42.660;23.262;2023-02-03T11:27:43;94494.41;;;4.12;57.93
9462;BME280;4769;42.660;23.262;2023-02-03T11:30:16;94493.81;;;4.17;57.82
9462;BME280;4769;42.660;23.262;2023-02-03T11:32:46;94494.16;;;4.07;59.35
9462;BME280;4769;42.660;23.262;2023-02-03T11:35:16;94486.88;;;4.30;59.33
9462;BME280;4769;42.660;23.262;2023-02-03T11:37:44;94490.44;;;4.63;58.13
9462;BME280;4769;42.660;23.262;2023-02-03T11:40:22;94481.75;;;4.50;58.49
9462;BME280;4769;42.660;23.262;2023-02-03T11:43:09;94481.34;;;4.53;57.91
9462;BME280;4769;42.660;23.262;2023-02-03T11:45:43;94465.69;;;4.53;57.95
9462;BME280;4769;42.660;23.262;2023-02-03T11:48:19;94478.09;;;4.44;58.48
9462;BME280;4769;42.660;23.262;2023-02-03T11:50:50;94471.94;;;4.18;58.43
9462;BME280;4769;42.660;23.262;2023-02-03T11:53:26;94471.13;;;4.17;58.92
9462;BME280;4769;42.660;23.262;2023-02-03T11:56:17;94467.69;;;4.10;57.91
9462;BME280;4769;42.660;23.262;2023-02-03T12:05:11;94484.53;;;4.08;54.38
9462;BME280;4769;42.660;23.262;2023-02-03T12:07:54;94460.00;;;5.03;50.30
9462;BME280;4769;42.660;23.262;2023-02-03T12:10:35;94458.84;;;5.44;48.42
9462;BME280;4769;42.660;23.262;2023-02-03T12:13:15;94450.34;;;5.10;48.89
9462;BME280;4769;42.660;23.262;2023-02-03T12:16:00;94461.91;;;4.62;49.69
9462;BME280;4769;42.660;23.262;2023-02-03T12:18:40;94456.97;;;4.33;50.40
9462;BME280;4769;42.660;23.262;2023-02-03T12:21:29;94467.19;;;4.28;51.44
9462;BME280;4769;42.660;23.262;2023-02-03T12:24:03;94468.97;;;4.27;51.90
9462;BME280;4769;42.660;23.262;2023-02-03T12:26:37;94458.72;;;4.26;51.36
9462;BME280;4769;42.660;23.262;2023-02-03T12:29:11;94452.19;;;4.02;51.47
9462;BME280;4769;42.660;23.262;2023-02-03T12:31:44;94460.72;;;4.24;51.63
9462;BME280;4769;42.660;23.262;2023-02-03T12:34:18;94456.34;;;4.31;52.09
9462;BME280;4769;42.660;23.262;2023-02-03T12:36:51;94458.75;;;4.32;52.29
9462;BME280;4769;42.660;23.262;2023-02-03T12:39:25;94450.38;;;4.43;52.98
9462;BME280;4769;42.660;23.262;2023-02-03T12:41:59;94454.38;;;4.39;53.13
9462;BME280;4769;42.660;23.262;2023-02-03T12:44:31;94451.03;;;4.58;53.43
9462;BME280;4769;42.660;23.262;2023-02-03T12:47:05;94451.31;;;4.23;51.95
9462;BME280;4769;42.660;23.262;2023-02-03T12:49:38;94494.88;;;4.29;52.39
9462;BME280;4769;42.660;23.262;2023-02-03T12:52:15;94455.16;;;3.99;53.34
9462;BME280;4769;42.660;23.262;2023-02-03T12:54:47;94457.19;;;3.97;53.97
9462;BME280;4769;42.660;23.262;2023-02-03T12:57:20;94446.44;;;3.79;53.40
9462;BME280;4769;42.660;23.262;2023-02-03T13:00:07;94441.63;;;3.83;53.63
9462;BME280;4769;42.660;23.262;2023-02-03T13:02:43;94442.13;;;3.99;53.52
9462;BME280;4769;42.660;23.262;2023-02-03T13:05:20;94446.66;;;3.84;55.04
9462;BME280;4769;42.660;23.262;2023-02-03T13:07:53;94440.41;;;3.79;55.78
9462;BME280;4769;42.660;23.262;2023-02-03T13:10:27;94415.91;;;3.73;56.13
9462;BME280;4769;42.660;23.262;2023-02-03T13:12:57;94432.63;;;3.85;56.80
9462;BME280;4769;42.660;23.262;2023-02-03T13:15:26;94428.47;;;3.97;57.46
9462;BME280;4769;42.660;23.262;2023-02-03T13:17:58;94430.91;;;3.99;58.85
9462;BME280;4769;42.660;23.262;2023-02-03T13:20:28;94429.31;;;4.04;59.03
9462;BME280;4769;42.660;23.262;2023-02-03T13:22:57;94432.47;;;3.93;60.37
9462;BME280;4769;42.660;23.262;2023-02-03T13:25:27;94408.34;;;3.85;61.84
9462;BME280;4769;42.660;23.262;2023-02-03T13:28:08;94422.63;;;3.95;60.81
9462;BME280;4769;42.660;23.262;2023-02-03T13:30:47;94433.66;;;3.91;60.51
9462;BME280;4769;42.660;23.262;2023-02-03T13:33:32;94432.44;;;3.87;61.19
9462;BME280;4769;42.660;23.262;2023-02-03T13:36:10;94416.84;;;4.00;59.52
9462;BME280;4769;42.660;23.262;2023-02-03T13:39:16;94419.84;;;3.97;58.81
9462;BME280;4769;42.660;23.262;2023-02-03T13:41:49;94417.72;;;4.13;59.98
9462;BME280;4769;42.660;23.262;2023-02-03T13:44:21;94424.50;;;4.01;60.61
9462;BME280;4769;42.660;23.262;2023-02-03T13:46:51;94425.75;;;3.78;61.68